Time;durP1;ratioP1;P1;durP2;ratioP2;P2;SDS_P1;SDS_P2;PMS_P1;PMS_P2;Temp;Humidity;BMP_temperature;BMP_pressure;BME280_temperature;BME280_humidity;BME280_pressure;Samples;Min_cycle;Max_cycle;Signal;HPM_P1;HPM_P2
2022/04/10 00:00:41;;;;;;;13.35;2.95;;;5.30;91.60;;;;;;5031406;28;20412;-67
2022/04/10 00:03:07;;;;;;;4.53;2.20;;;5.30;91.60;;;;;;5029480;28;20075;-66
2022/04/10 00:05:34;;;;;;;8.63;2.17;;;5.20;92.20;;;;;;5011779;28;20055;-67
2022/04/10 00:07:59;;;;;;;5.97;2.50;;;5.20;92.20;;;;;;5032048;28;20029;-67
2022/04/10 00:10:26;;;;;;;9.82;3.13;;;5.10;92.60;;;;;;5032586;28;20132;-66
2022/04/10 00:12:51;;;;;;;7.43;2.92;;;5.20;92.00;;;;;;5032232;28;20025;-67
2022/04/10 00:15:17;;;;;;;6.57;2.85;;;5.10;92.20;;;;;;5032163;28;20030;-67
2022/04/10 00:17:43;;;;;;;6.38;2.50;;;5.10;92.40;;;;;;5032119;28;20059;-67
2022/04/10 00:20:09;;;;;;;7.45;2.78;;;5.10;92.30;;;;;;5031876;28;20022;-66
2022/04/10 00:22:48;;;;;;;7.97;2.13;;;5.00;92.40;;;;;;5031411;28;20479;-66
2022/04/10 00:25:16;;;;;;;7.10;2.13;;;5.00;92.80;;;;;;5032047;28;20045;-66
2022/04/10 00:27:42;;;;;;;4.68;2.08;;;5.00;92.80;;;;;;5031818;28;20029;-67
2022/04/10 00:30:13;;;;;;;5.53;2.40;;;4.90;93.20;;;;;;5031295;28;20402;-66
2022/04/10 00:32:39;;;;;;;5.10;2.53;;;4.90;93.70;;;;;;5029427;28;20017;-66
2022/04/10 00:35:05;;;;;;;6.15;2.40;;;4.80;94.10;;;;;;5031701;28;20082;-66
2022/04/10 00:37:32;;;;;;;7.95;2.75;;;4.80;94.00;;;;;;5031448;28;20017;-66
2022/04/10 00:39:58;;;;;;;7.57;2.83;;;4.70;94.50;;;;;;5031583;28;20026;-66
2022/04/10 00:42:34;;;;;;;6.53;2.85;;;4.70;94.40;;;;;;5031668;28;20026;-66
2022/04/10 00:45:00;;;;;;;4.13;2.60;;;4.70;94.50;;;;;;5031478;28;20480;-66
2022/04/10 00:47:27;;;;;;;5.18;2.55;;;4.70;94.60;;;;;;5031397;28;20033;-66
2022/04/10 00:49:52;;;;;;;10.40;3.53;;;4.60;94.50;;;;;;5031402;28;20104;-66
2022/04/10 00:52:19;;;;;;;6.65;3.05;;;4.60;94.60;;;;;;5031144;28;20481;-67
2022/04/10 00:54:45;;;;;;;5.72;2.60;;;4.60;95.10;;;;;;5031359;28;20075;-67
2022/04/10 00:57:12;;;;;;;9.25;2.92;;;4.50;95.00;;;;;;5031239;28;20030;-67
2022/04/10 00:59:39;;;;;;;6.60;2.72;;;4.50;95.10;;;;;;5031025;28;20079;-66
2022/04/10 01:02:05;;;;;;;6.63;2.83;;;4.40;95.40;;;;;;5029897;28;20033;-67
2022/04/10 01:04:31;;;;;;;4.70;2.25;;;4.40;95.50;;;;;;5027862;28;20030;-66
2022/04/10 01:07:00;;;;;;;4.95;2.55;;;4.40;95.60;;;;;;5028585;28;20056;-66
2022/04/10 01:09:27;;;;;;;6.20;2.83;;;4.30;95.50;;;;;;5030951;28;20033;-66
2022/04/10 01:11:54;;;;;;;6.05;3.15;;;4.30;95.70;;;;;;5031242;28;20025;-66
2022/04/10 01:14:20;;;;;;;6.53;2.78;;;4.30;96.10;;;;;;5030657;28;20436;-66
2022/04/10 01:16:49;;;;;;;5.18;2.88;;;4.20;96.20;;;;;;5030483;28;20056;-67
2022/04/10 01:19:17;;;;;;;6.82;3.03;;;4.20;96.40;;;;;;5030875;28;20040;-66
2022/04/10 01:21:44;;;;;;;6.82;2.97;;;4.20;96.00;;;;;;5030944;28;20063;-67
2022/04/10 01:24:13;;;;;;;4.32;2.30;;;4.20;96.20;;;;;;5030645;28;20068;-66
2022/04/10 01:26:40;;;;;;;5.90;2.90;;;4.20;96.30;;;;;;5030604;28;20029;-66
2022/04/10 01:29:08;;;;;;;6.50;2.67;;;4.20;96.60;;;;;;5030514;28;20029;-66
2022/04/10 01:31:39;;;;;;;7.25;2.63;;;4.10;96.70;;;;;;5030593;28;20045;-66
2022/04/10 01:34:06;;;;;;;9.55;2.90;;;4.10;96.80;;;;;;5030559;28;20252;-66
2022/04/10 01:36:34;;;;;;;4.53;2.47;;;4.10;96.00;;;;;;5030508;28;20503;-66
2022/04/10 01:39:02;;;;;;;4.47;2.15;;;3.90;95.90;;;;;;5030493;28;20052;-66
2022/04/10 01:41:28;;;;;;;5.97;2.40;;;3.80;95.90;;;;;;5030766;28;20013;-66
2022/04/10 01:43:56;;;;;;;6.55;2.70;;;3.70;96.40;;;;;;5029625;28;20480;-66
2022/04/10 01:46:23;;;;;;;6.28;2.65;;;3.60;96.90;;;;;;5029458;28;20488;-66
2022/04/10 01:48:49;;;;;;;5.35;2.22;;;3.60;97.00;;;;;;5024118;28;20022;-66
2022/04/10 01:51:15;;;;;;;8.00;2.92;;;3.50;97.00;;;;;;5012029;28;20025;-68
2022/04/10 01:53:41;;;;;;;5.68;2.30;;;3.40;97.30;;;;;;5027164;28;20052;-68
2022/04/10 01:56:08;;;;;;;3.28;2.38;;;3.30;97.50;;;;;;5026927;28;20117;-66
2022/04/10 01:58:42;;;;;;;7.38;2.72;;;3.30;98.30;;;;;;5027100;28;20443;-67
2022/04/10 02:01:10;;;;;;;4.47;2.35;;;3.30;98.40;;;;;;5027097;28;20266;-66
2022/04/10 02:03:36;;;;;;;4.07;2.25;;;3.30;98.20;;;;;;5027137;28;20041;-66
2022/04/10 02:06:02;;;;;;;6.78;2.63;;;3.20;98.20;;;;;;5030055;28;20082;-66
2022/04/10 02:08:29;;;;;;;3.97;2.53;;;3.20;98.10;;;;;;5029610;28;20100;-66
2022/04/10 02:10:55;;;;;;;5.82;3.05;;;3.10;98.60;;;;;;5030146;28;20033;-66
2022/04/10 02:13:21;;;;;;;5.80;3.17;;;3.10;98.80;;;;;;5029827;28;20024;-66
2022/04/10 02:15:47;;;;;;;7.68;3.20;;;3.00;99.10;;;;;;5029737;28;20388;-66
2022/04/10 02:18:13;;;;;;;6.18;3.00;;;3.00;99.10;;;;;;5030012;28;20495;-66
2022/04/10 02:20:39;;;;;;;6.93;3.28;;;3.00;99.20;;;;;;5029972;28;20026;-66
2022/04/10 02:23:05;;;;;;;9.77;3.33;;;2.90;99.30;;;;;;5029297;28;20172;-67
2022/04/10 02:25:31;;;;;;;5.80;3.15;;;3.00;99.40;;;;;;5029786;28;20388;-66
2022/04/10 02:27:57;;;;;;;7.80;2.80;;;3.00;99.50;;;;;;5029802;28;20017;-68
2022/04/10 02:30:22;;;;;;;7.65;3.35;;;2.90;99.40;;;;;;5029708;28;20029;-68
2022/04/10 02:32:48;;;;;;;7.18;3.20;;;2.80;99.20;;;;;;5026557;28;20029;-69
2022/04/10 02:35:14;;;;;;;4.30;2.90;;;2.70;99.70;;;;;;5026164;28;20044;-67
2022/04/10 02:37:40;;;;;;;7.05;3.38;;;2.60;99.90;;;;;;5026427;28;20031;-66
2022/04/10 02:40:07;;;;;;;5.43;3.30;;;2.50;99.90;;;;;;5026720;28;20128;-67
2022/04/10 02:42:36;;;;;;;7.65;3.80;;;2.40;99.90;;;;;;5028328;28;20022;-66
2022/04/10 02:45:03;;;;;;;6.70;3.50;;;2.40;99.90;;;;;;5029404;28;20546;-67
2022/04/10 02:47:30;;;;;;;7.30;3.22;;;2.40;99.90;;;;;;5029425;28;20025;-67
2022/04/10 02:49:56;;;;;;;7.95;3.55;;;2.40;99.90;;;;;;5029623;28;20040;-66
2022/04/10 02:52:22;;;;;;;7.10;3.28;;;2.40;99.90;;;;;;5029371;28;20072;-66
2022/04/10 02:54:48;;;;;;;7.38;3.55;;;2.40;99.90;;;;;;5029794;28;20049;-67
2022/04/10 02:57:14;;;;;;;9.95;3.42;;;2.30;99.90;;;;;;5033241;28;20029;-66
2022/04/10 02:59:39;;;;;;;8.95;4.10;;;2.30;99.90;;;;;;5033314;28;20033;-66
2022/04/10 03:02:05;;;;;;;5.75;3.05;;;2.30;99.90;;;;;;5033361;28;20044;-66
2022/04/10 03:04:31;;;;;;;7.30;3.78;;;2.30;99.90;;;;;;5033296;28;20033;-66
2022/04/10 03:06:56;;;;;;;7.22;3.53;;;2.30;99.90;;;;;;5032972;28;20033;-66
2022/04/10 03:09:22;;;;;;;13.55;4.70;;;2.20;99.90;;;;;;5033529;28;20439;-67
2022/04/10 03:11:48;;;;;;;10.73;5.50;;;2.20;99.90;;;;;;5032902;28;20029;-66
2022/04/10 03:14:14;;;;;;;11.20;5.78;;;2.10;99.90;;;;;;5033123;28;20113;-66
2022/04/10 03:16:39;;;;;;;9.45;5.20;;;2.10;99.90;;;;;;5033052;28;20022;-66
2022/04/10 03:19:05;;;;;;;10.40;5.72;;;2.00;99.90;;;;;;5033049;28;20087;-67
2022/04/10 03:21:31;;;;;;;11.95;5.10;;;1.90;99.90;;;;;;5032878;28;20028;-67
2022/04/10 03:23:56;;;;;;;13.82;6.05;;;1.90;99.90;;;;;;5032695;28;20420;-67
2022/04/10 03:26:22;;;;;;;10.57;5.68;;;1.80;99.90;;;;;;5033067;28;20037;-67
2022/04/10 03:28:48;;;;;;;16.45;6.88;;;1.80;99.90;;;;;;5033215;28;20476;-67
2022/04/10 03:31:14;;;;;;;11.98;6.10;;;1.80;99.90;;;;;;5032840;28;20021;-67
2022/04/10 03:33:39;;;;;;;13.40;6.18;;;1.70;99.90;;;;;;5015186;28;20032;-66
2022/04/10 03:36:05;;;;;;;11.75;5.30;;;1.70;99.90;;;;;;5033042;28;20099;-66
2022/04/10 03:38:31;;;;;;;13.20;6.13;;;1.70;99.90;;;;;;5032646;28;20044;-67
2022/04/10 03:40:57;;;;;;;10.80;5.00;;;1.70;99.90;;;;;;5032681;28;20108;-67
2022/04/10 03:43:23;;;;;;;12.85;5.30;;;1.70;99.90;;;;;;5032819;28;20112;-67
2022/04/10 03:45:48;;;;;;;26.42;6.53;;;1.70;99.90;;;;;;5032542;28;20037;-66
2022/04/10 03:48:14;;;;;;;12.02;5.25;;;1.70;99.90;;;;;;5032617;28;20028;-67
2022/04/10 03:50:40;;;;;;;14.07;5.15;;;1.70;99.90;;;;;;5032611;28;20128;-66
2022/04/10 03:53:05;;;;;;;12.02;4.95;;;1.70;99.90;;;;;;5032361;28;20036;-67
2022/04/10 03:55:32;;;;;;;6.93;3.78;;;1.70;99.90;;;;;;5032467;28;20392;-66
2022/04/10 03:57:58;;;;;;;8.95;3.70;;;1.80;99.90;;;;;;5032651;28;20131;-66
2022/04/10 04:00:24;;;;;;;7.93;3.55;;;1.80;99.90;;;;;;5032345;28;20034;-66
2022/04/10 04:02:50;;;;;;;9.05;4.28;;;1.80;99.90;;;;;;5032274;28;20416;-66
2022/04/10 04:05:16;;;;;;;7.40;4.47;;;1.80;99.90;;;;;;5032312;28;20045;-66
2022/04/10 04:07:42;;;;;;;9.57;5.18;;;1.80;99.90;;;;;;5031197;28;20026;-66
2022/04/10 04:10:08;;;;;;;9.30;4.00;;;1.60;99.90;;;;;;5032601;28;20079;-66
2022/04/10 04:12:35;;;;;;;9.02;4.15;;;1.50;99.90;;;;;;5032283;28;20366;-67
2022/04/10 04:15:00;;;;;;;7.45;3.63;;;1.40;99.90;;;;;;5032193;28;20061;-66
2022/04/10 04:17:26;;;;;;;9.73;4.90;;;1.50;99.90;;;;;;5028910;28;20057;-66
2022/04/10 04:19:53;;;;;;;13.38;5.60;;;1.40;99.90;;;;;;5028564;28;20033;-67
2022/04/10 04:22:19;;;;;;;13.20;5.47;;;1.30;99.90;;;;;;5033207;28;20040;-66
2022/04/10 04:24:45;;;;;;;9.43;5.22;;;1.20;99.90;;;;;;5031711;28;20053;-66
2022/04/10 04:27:11;;;;;;;11.45;5.00;;;1.10;99.90;;;;;;5031876;28;20025;-70
2022/04/10 04:29:36;;;;;;;12.38;6.05;;;1.00;99.90;;;;;;5032065;28;20435;-66
2022/04/10 04:32:03;;;;;;;10.75;5.68;;;1.00;99.90;;;;;;5029519;28;20053;-66
2022/04/10 04:34:28;;;;;;;10.63;5.97;;;1.00;99.90;;;;;;5028445;28;20024;-66
2022/04/10 04:36:54;;;;;;;14.02;5.88;;;0.90;99.90;;;;;;5028731;28;20017;-67
2022/04/10 04:39:20;;;;;;;13.02;5.82;;;0.90;99.90;;;;;;5031552;28;20025;-66
2022/04/10 04:41:46;;;;;;;12.10;5.93;;;0.90;99.90;;;;;;5031190;28;20083;-66
2022/04/10 04:44:12;;;;;;;14.02;6.35;;;0.90;99.90;;;;;;5031286;28;20408;-66
2022/04/10 04:46:37;;;;;;;12.70;6.78;;;0.90;99.90;;;;;;5031419;28;20105;-66
2022/04/10 04:49:03;;;;;;;8.95;5.18;;;0.90;99.90;;;;;;5031394;28;20079;-66
2022/04/10 04:51:29;;;;;;;13.45;6.07;;;0.90;99.90;;;;;;5031333;28;20033;-66
2022/04/10 04:53:55;;;;;;;17.23;6.45;;;0.80;99.90;;;;;;5031095;28;20034;-66
2022/04/10 04:56:21;;;;;;;15.70;6.05;;;0.80;99.90;;;;;;5031254;28;20041;-67
2022/04/10 04:58:50;;;;;;;11.65;5.97;;;0.80;99.90;;;;;;5031365;28;20029;-66
2022/04/10 05:01:16;;;;;;;12.50;4.90;;;0.70;99.90;;;;;;5029951;28;20189;-66
2022/04/10 05:03:41;;;;;;;11.40;5.72;;;0.80;99.90;;;;;;5027880;28;20032;-66
2022/04/10 05:06:07;;;;;;;12.30;5.43;;;0.70;99.90;;;;;;5028031;28;20030;-66
2022/04/10 05:08:32;;;;;;;11.70;5.57;;;0.70;99.90;;;;;;5027724;28;20103;-67
2022/04/10 05:10:59;;;;;;;10.75;5.25;;;0.60;99.90;;;;;;5028003;28;20042;-66
2022/04/10 05:13:26;;;;;;;11.27;4.88;;;0.60;99.90;;;;;;5027928;28;20658;-67
2022/04/10 05:15:52;;;;;;;7.70;4.47;;;0.60;99.90;;;;;;5028323;28;20022;-66
2022/04/10 05:18:19;;;;;;;6.50;4.32;;;0.60;99.90;;;;;;5030844;28;20040;-67
2022/04/10 05:20:45;;;;;;;11.88;5.57;;;0.50;99.90;;;;;;5030670;28;20072;-66
2022/04/10 05:23:11;;;;;;;8.65;5.13;;;0.50;99.90;;;;;;5030457;28;20056;-66
2022/04/10 05:25:37;;;;;;;9.45;4.90;;;0.40;99.90;;;;;;5030776;28;20388;-66
2022/04/10 05:28:04;;;;;;;10.05;5.05;;;0.40;99.90;;;;;;5030819;28;20030;-67
2022/04/10 05:30:29;;;;;;;9.60;5.72;;;0.40;99.90;;;;;;5030469;28;20029;-66
2022/04/10 05:32:55;;;;;;;10.45;5.25;;;0.40;99.90;;;;;;5030566;28;20022;-66
2022/04/10 05:35:20;;;;;;;11.57;5.50;;;0.40;99.90;;;;;;5030825;28;20064;-66
2022/04/10 05:37:46;;;;;;;10.48;5.55;;;0.40;99.90;;;;;;5030451;28;20029;-66
2022/04/10 05:40:12;;;;;;;9.98;5.22;;;0.50;99.90;;;;;;5030782;28;20029;-66
2022/04/10 05:42:45;;;;;;;13.77;5.78;;;0.50;99.90;;;;;;5028194;28;20030;-66
2022/04/10 05:45:11;;;;;;;10.45;5.53;;;0.50;99.90;;;;;;5026946;28;20052;-67
2022/04/10 05:47:41;;;;;;;11.52;6.15;;;0.50;99.90;;;;;;5027118;28;20026;-66
2022/04/10 05:50:11;;;;;;;12.10;5.40;;;0.50;99.90;;;;;;5027056;28;20550;-66
2022/04/10 05:52:38;;;;;;;14.35;5.80;;;0.60;99.90;;;;;;5028829;28;20101;-66
2022/04/10 05:55:05;;;;;;;10.55;5.70;;;0.70;99.90;;;;;;5030231;28;20025;-66
2022/04/10 05:57:30;;;;;;;12.60;6.13;;;0.70;99.90;;;;;;5030169;28;20026;-66
2022/04/10 05:59:56;;;;;;;15.70;6.38;;;0.80;99.90;;;;;;5030241;28;20036;-66
2022/04/10 06:02:21;;;;;;;12.73;6.65;;;0.90;99.90;;;;;;5028149;28;20033;-66
2022/04/10 06:04:47;;;;;;;11.90;6.05;;;1.10;99.90;;;;;;5027056;28;20634;-66
2022/04/10 06:07:13;;;;;;;12.80;5.88;;;1.20;99.90;;;;;;5028487;28;20030;-66
2022/04/10 06:09:38;;;;;;;14.90;6.90;;;1.40;99.90;;;;;;5030322;28;20021;-67
2022/04/10 06:12:04;;;;;;;14.50;6.05;;;1.50;99.90;;;;;;5012176;28;20377;-66
2022/04/10 06:14:30;;;;;;;14.02;5.93;;;1.60;99.90;;;;;;5029868;28;20030;-66
2022/04/10 06:16:55;;;;;;;11.85;5.85;;;1.70;99.90;;;;;;5030156;28;20116;-66
2022/04/10 06:19:21;;;;;;;11.05;5.53;;;1.80;99.90;;;;;;5029928;28;20037;-67
2022/04/10 06:21:47;;;;;;;11.40;5.55;;;1.80;99.90;;;;;;5029638;28;20018;-66
2022/04/10 06:24:12;;;;;;;13.20;4.97;;;1.90;99.90;;;;;;5026881;28;20139;-66
2022/04/10 06:26:38;;;;;;;8.20;4.90;;;1.90;99.90;;;;;;5026859;28;20022;-66
2022/04/10 06:29:04;;;;;;;10.10;5.30;;;2.00;99.90;;;;;;5027250;28;20075;-66
2022/04/10 06:31:29;;;;;;;10.05;5.18;;;2.00;99.90;;;;;;5027380;28;20029;-66
2022/04/10 06:33:56;;;;;;;9.70;4.78;;;2.10;99.90;;;;;;5026564;28;20121;-66
2022/04/10 06:36:23;;;;;;;8.85;5.32;;;2.20;99.90;;;;;;5027686;28;20112;-66
2022/04/10 06:38:49;;;;;;;14.05;6.38;;;2.20;99.90;;;;;;5029656;28;20108;-66
2022/04/10 06:41:15;;;;;;;15.20;7.13;;;2.30;99.90;;;;;;5029548;28;20026;-66
2022/04/10 06:43:41;;;;;;;12.55;5.53;;;2.40;99.90;;;;;;5029500;28;20033;-66
2022/04/10 06:46:08;;;;;;;13.27;5.72;;;2.50;99.90;;;;;;5027919;28;20028;-66
2022/04/10 06:48:35;;;;;;;10.88;5.25;;;2.60;99.90;;;;;;5026293;28;20052;-67
2022/04/10 06:51:01;;;;;;;13.10;5.78;;;2.60;99.90;;;;;;5027235;28;20488;-67
2022/04/10 06:53:27;;;;;;;10.95;5.25;;;2.70;99.90;;;;;;5029363;28;20040;-67
2022/04/10 06:55:52;;;;;;;10.23;5.85;;;2.80;99.90;;;;;;5029401;28;20029;-67
2022/04/10 06:58:19;;;;;;;9.85;5.18;;;3.00;99.90;;;;;;5029539;28;20034;-67
2022/04/10 07:00:45;;;;;;;13.93;5.50;;;3.30;99.40;;;;;;5028683;28;20026;-67
2022/04/10 07:03:11;;;;;;;9.02;5.43;;;3.60;98.70;;;;;;5026265;28;20334;-67
2022/04/10 07:05:37;;;;;;;12.10;6.38;;;4.00;98.10;;;;;;5026922;28;20030;-66
2022/04/10 07:08:03;;;;;;;12.07;5.20;;;4.60;96.70;;;;;;5027634;28;20554;-66
2022/04/10 07:10:29;;;;;;;9.90;4.93;;;5.30;94.00;;;;;;5029476;28;20476;-67
2022/04/10 07:12:55;;;;;;;10.77;5.35;;;6.40;91.60;;;;;;5029201;28;20041;-67
2022/04/10 07:15:20;;;;;;;9.30;4.93;;;7.00;89.30;;;;;;5029219;28;20116;-66
2022/04/10 07:17:46;;;;;;;9.10;4.95;;;7.70;84.80;;;;;;5029581;28;20064;-67
2022/04/10 07:20:12;;;;;;;10.70;5.05;;;8.40;81.70;;;;;;5029311;28;20385;-66
2022/04/10 07:25:22;;;;;;;10.45;5.68;;;9.40;74.40;;;;;;5029345;28;20065;-67
2022/04/10 07:27:48;;;;;;;11.25;6.45;;;9.50;70.30;;;;;;5028882;28;20544;-67
2022/04/10 07:30:14;;;;;;;9.20;5.13;;;9.70;68.90;;;;;;5029219;28;20179;-67
2022/04/10 07:32:39;;;;;;;9.70;5.03;;;10.20;66.50;;;;;;5029342;28;20068;-67
2022/04/10 07:35:06;;;;;;;8.60;4.72;;;10.40;64.70;;;;;;5029281;28;20329;-68
2022/04/10 07:37:32;;;;;;;7.43;5.30;;;9.90;61.90;;;;;;5029011;28;20069;-67
2022/04/10 07:39:58;;;;;;;10.55;5.15;;;10.20;59.70;;;;;;5029108;28;20472;-68
2022/04/10 07:42:24;;;;;;;9.98;5.25;;;10.40;56.60;;;;;;5029899;28;20059;-67
2022/04/10 07:44:54;;;;;;;9.35;5.03;;;10.60;55.50;;;;;;5032971;28;20030;-67
2022/04/10 07:47:27;;;;;;;9.20;5.13;;;11.40;52.40;;;;;;5032636;28;20164;-67
2022/04/10 07:49:55;;;;;;;9.10;5.05;;;12.50;48.90;;;;;;5032799;28;20034;-68
2022/04/10 07:52:22;;;;;;;9.27;4.97;;;13.10;43.00;;;;;;5032251;28;20064;-68
2022/04/10 07:54:48;;;;;;;10.57;5.00;;;12.90;42.00;;;;;;5032578;28;20449;-68
2022/04/10 07:57:15;;;;;;;10.45;5.32;;;13.30;40.90;;;;;;5032703;28;20041;-67
2022/04/10 07:59:40;;;;;;;10.48;4.75;;;13.80;40.30;;;;;;5032529;28;20029;-68
2022/04/10 08:02:06;;;;;;;8.73;4.82;;;14.20;37.00;;;;;;5032542;28;20092;-68
2022/04/10 08:04:32;;;;;;;10.20;5.15;;;14.10;37.10;;;;;;5032407;28;20040;-67
2022/04/10 08:06:58;;;;;;;9.40;5.20;;;14.80;35.60;;;;;;5032174;28;20032;-67
2022/04/10 08:09:23;;;;;;;8.63;5.13;;;14.40;35.00;;;;;;5032514;28;20064;-68
2022/04/10 08:11:50;;;;;;;8.95;4.95;;;15.40;32.70;;;;;;5032205;28;20036;-68
2022/04/10 08:14:16;;;;;;;9.80;3.78;;;15.80;31.40;;;;;;5032414;28;20057;-68
2022/04/10 08:16:41;;;;;;;8.00;3.63;;;15.80;29.90;;;;;;5032356;28;20056;-69
2022/04/10 08:19:07;;;;;;;11.07;4.22;;;16.90;28.60;;;;;;5032761;28;20091;-68
2022/04/10 08:21:33;;;;;;;9.45;4.43;;;17.00;27.40;;;;;;5032143;28;20457;-68
2022/04/10 08:23:59;;;;;;;9.07;3.53;;;17.70;26.20;;;;;;5031706;28;20045;-68
2022/04/10 08:26:24;;;;;;;7.82;4.50;;;17.60;26.20;;;;;;5032105;28;20025;-69
2022/04/10 08:28:50;;;;;;;6.72;3.33;;;18.40;26.30;;;;;;5032090;28;20566;-69
2022/04/10 08:31:16;;;;;;;4.57;3.47;;;18.30;25.70;;;;;;5031757;28;20117;-68
2022/04/10 08:33:42;;;;;;;10.35;3.60;;;17.80;26.70;;;;;;5031965;28;20549;-69
2022/04/10 08:36:08;;;;;;;6.38;3.88;;;18.10;26.80;;;;;;5032048;28;20025;-68
2022/04/10 08:38:34;;;;;;;9.43;3.70;;;18.80;26.80;;;;;;5031801;28;20025;-69
2022/04/10 08:41:01;;;;;;;7.53;3.33;;;18.30;26.80;;;;;;5031534;28;20026;-69
2022/04/10 08:43:27;;;;;;;5.90;3.38;;;18.40;26.70;;;;;;5031684;28;20029;-68
2022/04/10 08:45:57;;;;;;;7.25;3.20;;;18.80;26.90;;;;;;5031540;28;20472;-68
2022/04/10 08:48:26;;;;;;;10.63;3.10;;;19.20;26.10;;;;;;5031738;28;20113;-68
2022/04/10 08:50:54;;;;;;;9.52;3.33;;;20.60;25.50;;;;;;5032001;28;20044;-68
2022/04/10 08:53:23;;;;;;;8.70;3.13;;;20.20;25.00;;;;;;5031390;28;20025;-68
2022/04/10 08:55:48;;;;;;;5.28;2.80;;;20.30;25.50;;;;;;5029016;28;20021;-69
2022/04/10 08:58:15;;;;;;;8.00;3.15;;;20.50;24.40;;;;;;5028161;28;20074;-69
2022/04/10 09:00:44;;;;;;;4.93;2.60;;;20.60;24.40;;;;;;5027967;28;20388;-68
2022/04/10 09:03:10;;;;;;;4.88;2.53;;;21.50;23.40;;;;;;5029091;28;20036;-69
2022/04/10 09:05:37;;;;;;;3.58;2.47;;;21.70;22.60;;;;;;5030986;28;20515;-70
2022/04/10 09:08:13;;;;;;;3.90;2.05;;;22.80;22.00;;;;;;5028004;28;20029;-69
2022/04/10 09:11:05;;;;;;;7.25;2.60;;;23.00;21.80;;;;;;5028202;28;20033;-69
2022/04/10 09:13:41;;;;;;;5.57;2.10;;;22.70;20.40;;;;;;5028994;28;20017;-69
2022/04/10 09:16:10;;;;;;;4.03;2.00;;;20.20;22.00;;;;;;5017812;28;20112;-69
2022/04/10 09:19:14;;;;;;;8.10;2.22;;;20.40;21.60;;;;;;5009473;28;20532;-69
2022/04/10 09:21:43;;;;;;;6.10;2.33;;;17.50;25.20;;;;;;4917075;29;20475;-68
2022/04/10 09:24:13;;;;;;;7.13;2.33;;;15.70;30.80;;;;;;4940438;29;20186;-69
2022/04/10 09:26:48;;;;;;;6.95;2.10;;;15.30;35.20;;;;;;4990894;28;20612;-67
2022/04/10 09:29:15;;;;;;;4.93;2.30;;;15.20;33.60;;;;;;5031060;28;20469;-67
2022/04/10 09:31:41;;;;;;;5.93;2.13;;;18.20;30.30;;;;;;5030763;28;20033;-65
2022/04/10 09:34:14;;;;;;;5.20;1.80;;;20.80;24.90;;;;;;5031192;28;20030;-65
2022/04/10 09:36:44;;;;;;;5.90;2.45;;;19.70;21.70;;;;;;5030480;28;20026;-67
2022/04/10 09:39:28;;;;;;;;;;;19.20;22.30;;;;;;5031161;28;20025;-67
2022/04/10 09:42:02;;;;;;;3.22;1.77;;;20.10;22.40;;;;;;5030833;28;19909;-66
2022/04/10 09:44:32;;;;;;;4.38;1.88;;;18.50;25.20;;;;;;5030777;28;20040;-65
2022/04/10 09:47:01;;;;;;;4.70;1.70;;;21.10;23.70;;;;;;5030780;28;20025;-67
2022/04/10 09:49:32;;;;;;;5.25;1.88;;;17.30;22.50;;;;;;5030546;28;20064;-66
2022/04/10 09:52:09;;;;;;;6.60;2.05;;;15.40;24.90;;;;;;5030267;28;20025;-67
2022/04/10 09:54:47;;;;;;;4.72;1.45;;;15.40;28.50;;;;;;5030793;28;20108;-66
2022/04/10 09:57:15;;;;;;;4.70;1.80;;;16.20;28.90;;;;;;5012892;28;20444;-66
2022/04/10 09:59:43;;;;;;;5.63;1.90;;;17.60;26.50;;;;;;5030307;28;20065;-65
2022/04/10 10:02:12;;;;;;;4.97;1.88;;;18.60;24.20;;;;;;5029982;28;20017;-67
2022/04/10 10:04:39;;;;;;;4.65;1.25;;;21.80;18.40;;;;;;5029640;28;20037;-65
2022/04/10 10:07:10;;;;;;;3.47;1.65;;;24.10;15.60;;;;;;5029644;28;20079;-65
2022/04/10 10:09:36;;;;;;;6.13;1.77;;;20.50;17.40;;;;;;5029920;28;20051;-65
2022/04/10 10:12:03;;;;;;;3.92;1.30;;;19.70;19.60;;;;;;5030317;28;20029;-65
2022/04/10 10:14:33;;;;;;;5.20;1.55;;;20.10;18.00;;;;;;5030180;28;20025;-64
2022/04/10 10:17:00;;;;;;;6.63;1.70;;;20.00;20.70;;;;;;5029886;28;20025;-65
2022/04/10 10:19:28;;;;;;;5.68;1.77;;;19.90;20.50;;;;;;5029847;28;20084;-65
2022/04/10 10:21:54;;;;;;;2.83;1.50;;;17.60;24.40;;;;;;5029775;28;20021;-64
2022/04/10 10:24:23;;;;;;;5.20;1.52;;;17.90;26.40;;;;;;5029819;28;20136;-64
2022/04/10 10:27:08;;;;;;;4.38;1.80;;;17.50;27.10;;;;;;5029833;28;20393;-63
2022/04/10 10:29:49;;;;;;;5.63;1.75;;;18.20;26.50;;;;;;5029839;28;20029;-63
2022/04/10 10:32:17;;;;;;;6.95;1.80;;;21.00;21.80;;;;;;5026967;28;20030;-69
2022/04/10 10:34:44;;;;;;;7.10;1.75;;;22.40;21.10;;;;;;5026265;28;20111;-68
2022/04/10 10:37:14;;;;;;;5.53;1.80;;;19.90;22.00;;;;;;5028019;28;20507;-68
2022/04/10 10:39:45;;;;;;;7.43;1.70;;;17.80;25.10;;;;;;5029854;28;20029;-70
2022/04/10 10:42:12;;;;;;;4.05;1.52;;;16.80;29.40;;;;;;5029731;28;20149;-71
2022/04/10 10:44:39;;;;;;;4.70;2.00;;;20.50;26.20;;;;;;5029758;28;20926;-68
2022/04/10 10:47:05;;;;;;;5.18;1.77;;;20.00;22.00;;;;;;5029414;28;20061;-68
2022/04/10 10:49:32;;;;;;;3.80;1.50;;;20.60;22.50;;;;;;5029569;28;20052;-67
2022/04/10 10:51:58;;;;;;;4.95;1.70;;;18.60;24.10;;;;;;5029431;28;20056;-67
2022/04/10 10:54:34;;;;;;;4.43;1.40;;;20.20;23.80;;;;;;5030110;28;20033;-70
2022/04/10 10:57:40;;;;;;;4.65;1.60;;;19.10;23.10;;;;;;5029370;28;20534;-69
2022/04/10 11:00:13;;;;;;;5.22;1.40;;;18.90;22.50;;;;;;5009689;28;20044;-70
2022/04/10 11:02:44;;;;;;;2.55;1.08;;;19.30;22.60;;;;;;5007154;28;20029;-70
2022/04/10 11:05:31;;;;;;;3.20;1.40;;;22.00;20.30;;;;;;5006811;28;20038;-68
2022/04/10 11:08:13;;;;;;;4.47;1.40;;;24.40;17.50;;;;;;5009361;28;20472;-67
2022/04/10 11:11:01;;;;;;;5.55;1.67;;;23.00;17.90;;;;;;5009613;28;20034;-66
2022/04/10 11:13:42;;;;;;;4.85;1.60;;;22.20;17.90;;;;;;5007755;28;20022;-67
2022/04/10 11:16:12;;;;;;;4.20;1.60;;;23.60;17.70;;;;;;5006626;28;20121;-67
2022/04/10 11:18:42;;;;;;;6.05;1.77;;;20.70;18.30;;;;;;5010357;28;20068;-72
2022/04/10 11:21:09;;;;;;;2.22;1.27;;;23.00;19.20;;;;;;5013924;28;20497;-69
2022/04/10 11:23:41;;;;;;;3.92;1.85;;;22.90;16.20;;;;;;5029846;28;20053;-65
2022/04/10 11:26:13;;;;;;;5.13;1.60;;;22.40;17.50;;;;;;5029839;28;20025;-66
2022/04/10 11:29:00;;;;;;;5.10;1.85;;;22.50;17.80;;;;;;5029442;28;20105;-66
2022/04/10 11:31:34;;;;;;;6.07;2.03;;;23.70;17.90;;;;;;5029594;28;20025;-64
2022/04/10 11:34:25;;;;;;;5.20;1.60;;;23.80;16.80;;;;;;5029712;28;20021;-65
2022/04/10 11:36:52;;;;;;;5.00;1.40;;;23.20;17.40;;;;;;5029745;28;20046;-65
2022/04/10 11:39:29;;;;;;;3.75;1.50;;;21.00;18.20;;;;;;5029425;28;20681;-65
2022/04/10 11:42:06;;;;;;;5.22;1.42;;;22.70;18.40;;;;;;5029814;28;20098;-64
2022/04/10 11:44:32;;;;;;;4.47;1.35;;;21.30;17.60;;;;;;5029682;28;20029;-64
2022/04/10 11:47:05;;;;;;;3.83;1.55;;;19.70;21.60;;;;;;5029233;28;20034;-65
2022/04/10 11:49:31;;;;;;;5.15;1.60;;;18.80;21.80;;;;;;5029313;28;20043;-66
2022/04/10 11:51:58;;;;;;;4.95;1.40;;;20.10;21.90;;;;;;5029080;28;20462;-67
2022/04/10 11:54:32;;;;;;;3.70;1.10;;;20.10;21.10;;;;;;5029680;28;20030;-65
2022/04/10 11:56:59;;;;;;;4.60;1.48;;;20.50;20.10;;;;;;5029334;28;20440;-65
2022/04/10 11:59:26;;;;;;;3.42;1.27;;;19.60;20.60;;;;;;5029612;28;20072;-65
2022/04/10 12:01:53;;;;;;;5.20;2.03;;;21.50;18.90;;;;;;5029239;28;20022;-66
2022/04/10 12:04:20;;;;;;;2.00;0.90;;;22.00;18.60;;;;;;5029407;28;20124;-65
2022/04/10 12:06:46;;;;;;;4.55;1.13;;;22.00;16.60;;;;;;5029072;28;20697;-66
2022/04/10 12:09:12;;;;;;;4.18;1.00;;;22.90;15.10;;;;;;5029221;28;20026;-66
2022/04/10 12:11:42;;;;;;;4.10;1.70;;;23.20;15.80;;;;;;5029052;28;20036;-67
2022/04/10 12:14:21;;;;;;;5.07;1.55;;;22.60;14.80;;;;;;5028956;28;20025;-67
2022/04/10 12:16:47;;;;;;;5.95;1.70;;;22.00;16.10;;;;;;5028794;28;20099;-66
2022/04/10 12:19:13;;;;;;;5.20;1.50;;;22.30;17.30;;;;;;5029195;28;20029;-65
2022/04/10 12:21:48;;;;;;;4.80;1.50;;;23.50;16.40;;;;;;5029134;28;20095;-68
2022/04/10 12:24:22;;;;;;;1.70;0.95;;;23.90;14.80;;;;;;5028852;28;20045;-67
2022/04/10 12:26:49;;;;;;;4.65;1.23;;;22.10;15.40;;;;;;5029047;28;20028;-67
2022/04/10 12:29:17;;;;;;;5.47;1.23;;;23.10;14.80;;;;;;5027923;28;20414;-68
2022/04/10 12:31:43;;;;;;;4.55;1.50;;;23.70;14.10;;;;;;5028460;28;20461;-68
2022/04/10 12:34:13;;;;;;;3.33;1.00;;;23.10;13.30;;;;;;5028628;28;20550;-68
2022/04/10 12:36:50;;;;;;;6.43;1.27;;;23.70;12.90;;;;;;5028698;28;20132;-68
2022/04/10 12:39:26;;;;;;;2.38;1.40;;;22.80;13.60;;;;;;5028492;28;20026;-67
2022/04/10 12:42:01;;;;;;;4.88;1.08;;;23.80;12.70;;;;;;5027034;28;20116;-68
2022/04/10 12:44:27;;;;;;;4.47;1.45;;;23.80;13.10;;;;;;5028566;28;20034;-68
2022/04/10 12:46:53;;;;;;;5.43;1.55;;;24.60;12.50;;;;;;5028313;28;20105;-68
2022/04/10 12:49:19;;;;;;;4.13;1.60;;;25.00;11.90;;;;;;5028105;28;20411;-66
2022/04/10 12:51:53;;;;;;;5.45;1.33;;;24.80;10.50;;;;;;5028069;28;20602;-66
2022/04/10 12:54:39;;;;;;;4.57;1.20;;;24.50;11.90;;;;;;5028393;28;20037;-66
2022/04/10 12:57:07;;;;;;;1.77;0.90;;;24.60;11.70;;;;;;5028330;28;20087;-66